sensor_id;sensor_type;location;lat;lon;timestamp;pressure;altitude;pressure_sealevel;temperature;humidity
33414;BME280;60055;41.884;12.534;2024-03-23T00:51:03;101176.56;;;15.62;74.74
33414;BME280;60055;41.884;12.534;2024-03-23T00:55:54;101161.78;;;15.56;75.40
33414;BME280;60055;41.884;12.534;2024-03-23T00:58:19;101165.63;;;15.51;74.97
33414;BME280;60055;41.884;12.534;2024-03-23T01:00:45;101165.94;;;15.43;75.34
33414;BME280;60055;41.884;12.534;2024-03-23T01:03:10;101166.88;;;15.42;75.52
33414;BME280;60055;41.884;12.534;2024-03-23T01:05:36;101162.47;;;15.24;75.53
33414;BME280;60055;41.884;12.534;2024-03-23T01:08:01;101153.56;;;15.42;74.96
33414;BME280;60055;41.884;12.534;2024-03-23T01:10:27;101154.09;;;15.50;74.78
33414;BME280;60055;41.884;12.534;2024-03-23T01:12:52;101148.50;;;15.38;74.95
33414;BME280;60055;41.884;12.534;2024-03-23T01:15:18;101150.34;;;15.35;74.60
33414;BME280;60055;41.884;12.534;2024-03-23T01:17:43;101142.47;;;15.15;75.44
33414;BME280;60055;41.884;12.534;2024-03-23T01:20:09;101146.16;;;15.13;75.47
33414;BME280;60055;41.884;12.534;2024-03-23T01:22:34;101148.25;;;15.06;76.13
33414;BME280;60055;41.884;12.534;2024-03-23T01:24:59;101150.97;;;15.05;75.95
33414;BME280;60055;41.884;12.534;2024-03-23T01:27:25;101141.53;;;15.16;75.64
33414;BME280;60055;41.884;12.534;2024-03-23T01:29:50;101145.78;;;15.20;74.88
33414;BME280;60055;41.884;12.534;2024-03-23T01:32:17;101145.06;;;14.98;75.99
33414;BME280;60055;41.884;12.534;2024-03-23T01:34:43;101139.19;;;15.10;75.50
33414;BME280;60055;41.884;12.534;2024-03-23T01:37:08;101136.44;;;15.12;74.77
33414;BME280;60055;41.884;12.534;2024-03-23T01:39:34;101146.00;;;15.16;74.89
33414;BME280;60055;41.884;12.534;2024-03-23T01:41:59;101135.72;;;15.08;75.16
33414;BME280;60055;41.884;12.534;2024-03-23T01:44:25;101138.31;;;15.10;74.77
33414;BME280;60055;41.884;12.534;2024-03-23T01:46:50;101138.88;;;15.16;74.83
33414;BME280;60055;41.884;12.534;2024-03-23T01:49:16;101135.09;;;15.03;75.24
33414;BME280;60055;41.884;12.534;2024-03-23T01:51:42;101135.81;;;15.07;74.69
33414;BME280;60055;41.884;12.534;2024-03-23T01:54:09;101136.22;;;15.16;74.61
33414;BME280;60055;41.884;12.534;2024-03-23T01:56:34;101144.16;;;14.99;75.14
33414;BME280;60055;41.884;12.534;2024-03-23T01:59:01;101138.84;;;14.99;75.21
33414;BME280;60055;41.884;12.534;2024-03-23T02:01:27;101146.44;;;14.88;75.24
33414;BME280;60055;41.884;12.534;2024-03-23T02:03:52;101137.75;;;14.84;75.69
33414;BME280;60055;41.884;12.534;2024-03-23T02:06:17;101138.31;;;14.91;75.57
33414;BME280;60055;41.884;12.534;2024-03-23T02:08:43;101136.25;;;14.79;76.11
33414;BME280;60055;41.884;12.534;2024-03-23T02:11:09;101136.59;;;14.71;75.95
33414;BME280;60055;41.884;12.534;2024-03-23T02:13:35;101136.88;;;14.84;75.41
33414;BME280;60055;41.884;12.534;2024-03-23T02:16:00;101132.03;;;14.94;75.07
33414;BME280;60055;41.884;12.534;2024-03-23T02:18:25;101135.66;;;14.91;74.91
33414;BME280;60055;41.884;12.534;2024-03-23T02:20:51;101127.41;;;14.78;75.36
33414;BME280;60055;41.884;12.534;2024-03-23T02:23:17;101130.41;;;14.71;75.30
33414;BME280;60055;41.884;12.534;2024-03-23T02:25:44;101126.97;;;14.69;75.66
33414;BME280;60055;41.884;12.534;2024-03-23T02:28:09;101126.78;;;14.73;75.84
33414;BME280;60055;41.884;12.534;2024-03-23T02:30:35;101120.34;;;14.77;75.30
33414;BME280;60055;41.884;12.534;2024-03-23T02:33:00;101119.00;;;14.88;74.97
33414;BME280;60055;41.884;12.534;2024-03-23T02:35:26;101121.88;;;14.83;75.38
33414;BME280;60055;41.884;12.534;2024-03-23T02:37:51;101113.75;;;14.86;74.91
33414;BME280;60055;41.884;12.534;2024-03-23T02:40:18;101113.25;;;14.59;76.16
33414;BME280;60055;41.884;12.534;2024-03-23T02:42:43;101107.31;;;14.73;75.49
33414;BME280;60055;41.884;12.534;2024-03-23T02:45:09;101106.34;;;14.74;75.42
33414;BME280;60055;41.884;12.534;2024-03-23T02:47:34;101112.63;;;14.73;76.04
33414;BME280;60055;41.884;12.534;2024-03-23T02:49:59;101105.72;;;14.69;75.98
33414;BME280;60055;41.884;12.534;2024-03-23T02:52:25;101102.69;;;14.58;76.09
33414;BME280;60055;41.884;12.534;2024-03-23T02:54:50;101107.38;;;14.53;76.38
33414;BME280;60055;41.884;12.534;2024-03-23T02:57:16;101107.50;;;14.50;76.80
33414;BME280;60055;41.884;12.534;2024-03-23T02:59:41;101103.13;;;14.49;76.56
33414;BME280;60055;41.884;12.534;2024-03-23T03:02:07;101107.56;;;14.48;76.84
33414;BME280;60055;41.884;12.534;2024-03-23T03:04:32;101102.47;;;14.44;76.57
33414;BME280;60055;41.884;12.534;2024-03-23T03:06:58;101091.91;;;14.42;76.75
33414;BME280;60055;41.884;12.534;2024-03-23T03:09:23;101100.16;;;14.36;77.19
33414;BME280;60055;41.884;12.534;2024-03-23T03:11:49;101097.66;;;14.52;76.75
33414;BME280;60055;41.884;12.534;2024-03-23T03:14:14;101100.69;;;14.63;75.76
33414;BME280;60055;41.884;12.534;2024-03-23T03:16:39;101102.53;;;14.61;75.91
33414;BME280;60055;41.884;12.534;2024-03-23T03:19:05;101093.69;;;14.42;76.31
33414;BME280;60055;41.884;12.534;2024-03-23T03:21:31;101091.91;;;14.61;75.72
33414;BME280;60055;41.884;12.534;2024-03-23T03:23:57;101094.41;;;14.64;76.01
33414;BME280;60055;41.884;12.534;2024-03-23T03:26:23;101102.75;;;14.75;75.07
33414;BME280;60055;41.884;12.534;2024-03-23T03:28:50;101090.56;;;14.52;76.03
33414;BME280;60055;41.884;12.534;2024-03-23T03:31:15;101096.75;;;14.53;75.59
33414;BME280;60055;41.884;12.534;2024-03-23T03:33:41;101095.59;;;14.58;75.24
33414;BME280;60055;41.884;12.534;2024-03-23T03:36:07;101091.19;;;14.57;74.81
33414;BME280;60055;41.884;12.534;2024-03-23T03:38:32;101095.56;;;14.19;76.29
33414;BME280;60055;41.884;12.534;2024-03-23T03:41:00;101088.00;;;14.10;77.22
33414;BME280;60055;41.884;12.534;2024-03-23T03:43:25;101093.66;;;13.82;78.33
33414;BME280;60055;41.884;12.534;2024-03-23T03:45:55;101100.75;;;14.22;76.63
33414;BME280;60055;41.884;12.534;2024-03-23T03:48:21;101107.41;;;14.12;77.13
33414;BME280;60055;41.884;12.534;2024-03-23T03:50:46;101103.22;;;14.07;77.67
33414;BME280;60055;41.884;12.534;2024-03-23T03:53:11;101109.78;;;14.18;77.23
33414;BME280;60055;41.884;12.534;2024-03-23T03:55:37;101117.09;;;14.33;76.48
33414;BME280;60055;41.884;12.534;2024-03-23T03:58:02;101107.28;;;14.36;76.34
33414;BME280;60055;41.884;12.534;2024-03-23T04:00:28;101108.22;;;14.33;76.11
33414;BME280;60055;41.884;12.534;2024-03-23T04:02:53;101105.50;;;14.36;76.02
33414;BME280;60055;41.884;12.534;2024-03-23T04:05:19;101106.91;;;14.23;76.24
33414;BME280;60055;41.884;12.534;2024-03-23T04:07:45;101102.81;;;14.36;75.80
33414;BME280;60055;41.884;12.534;2024-03-23T04:10:10;101102.06;;;14.32;75.62
33414;BME280;60055;41.884;12.534;2024-03-23T04:12:36;101103.41;;;14.22;76.05
33414;BME280;60055;41.884;12.534;2024-03-23T04:15:02;101095.44;;;14.22;76.21
33414;BME280;60055;41.884;12.534;2024-03-23T04:17:30;101100.63;;;14.25;75.84
33414;BME280;60055;41.884;12.534;2024-03-23T04:19:57;101102.06;;;14.32;75.85
33414;BME280;60055;41.884;12.534;2024-03-23T04:22:23;101097.72;;;14.30;75.92
33414;BME280;60055;41.884;12.534;2024-03-23T04:24:52;101098.75;;;14.27;75.74
33414;BME280;60055;41.884;12.534;2024-03-23T04:27:18;101097.81;;;14.28;75.66
33414;BME280;60055;41.884;12.534;2024-03-23T04:29:47;101106.47;;;14.13;76.31
33414;BME280;60055;41.884;12.534;2024-03-23T04:32:13;101095.56;;;14.19;75.32
33414;BME280;60055;41.884;12.534;2024-03-23T04:34:39;101098.03;;;14.04;75.98
33414;BME280;60055;41.884;12.534;2024-03-23T04:37:04;101102.34;;;14.06;76.50
33414;BME280;60055;41.884;12.534;2024-03-23T04:39:29;101103.75;;;14.15;75.67
33414;BME280;60055;41.884;12.534;2024-03-23T04:41:55;101097.00;;;14.08;76.18
33414;BME280;60055;41.884;12.534;2024-03-23T04:44:20;101090.81;;;14.07;76.13
33414;BME280;60055;41.884;12.534;2024-03-23T04:46:46;101096.41;;;14.01;76.05
33414;BME280;60055;41.884;12.534;2024-03-23T04:49:11;101102.75;;;14.17;75.41
33414;BME280;60055;41.884;12.534;2024-03-23T04:51:37;101091.66;;;14.28;75.19
33414;BME280;60055;41.884;12.534;2024-03-23T04:54:03;101090.00;;;14.25;74.88
33414;BME280;60055;41.884;12.534;2024-03-23T04:56:29;101091.06;;;14.21;74.97
33414;BME280;60055;41.884;12.534;2024-03-23T04:58:54;101091.97;;;14.20;75.21
33414;BME280;60055;41.884;12.534;2024-03-23T05:01:20;101095.97;;;14.10;75.06
33414;BME280;60055;41.884;12.534;2024-03-23T05:03:45;101096.22;;;14.06;75.17
33414;BME280;60055;41.884;12.534;2024-03-23T05:06:10;101093.41;;;14.09;75.11
33414;BME280;60055;41.884;12.534;2024-03-23T05:08:36;101096.72;;;14.14;75.17
33414;BME280;60055;41.884;12.534;2024-03-23T05:11:01;101091.72;;;14.06;74.99
33414;BME280;60055;41.884;12.534;2024-03-23T05:13:27;101090.28;;;13.99;74.80
33414;BME280;60055;41.884;12.534;2024-03-23T05:15:56;101103.97;;;13.90;75.97
33414;BME280;60055;41.884;12.534;2024-03-23T05:18:22;101099.47;;;13.92;75.60
33414;BME280;60055;41.884;12.534;2024-03-23T05:20:47;101100.19;;;13.96;75.55
33414;BME280;60055;41.884;12.534;2024-03-23T05:23:13;101095.94;;;13.71;76.43
33414;BME280;60055;41.884;12.534;2024-03-23T05:25:38;101103.09;;;13.90;75.82
33414;BME280;60055;41.884;12.534;2024-03-23T05:28:04;101110.59;;;14.00;75.25
33414;BME280;60055;41.884;12.534;2024-03-23T05:30:29;101106.59;;;14.10;75.34
33414;BME280;60055;41.884;12.534;2024-03-23T05:32:54;101104.69;;;14.14;74.80
33414;BME280;60055;41.884;12.534;2024-03-23T05:35:20;101103.75;;;14.15;74.65
33414;BME280;60055;41.884;12.534;2024-03-23T05:37:45;101110.91;;;14.13;74.69
33414;BME280;60055;41.884;12.534;2024-03-23T05:40:11;101114.97;;;14.21;74.71
33414;BME280;60055;41.884;12.534;2024-03-23T05:42:38;101112.94;;;14.26;74.60
33414;BME280;60055;41.884;12.534;2024-03-23T05:45:03;101117.19;;;14.30;74.56
33414;BME280;60055;41.884;12.534;2024-03-23T05:47:31;101118.81;;;14.35;73.86
33414;BME280;60055;41.884;12.534;2024-03-23T05:49:57;101117.75;;;14.18;74.68
33414;BME280;60055;41.884;12.534;2024-03-23T05:52:22;101122.81;;;14.04;75.33
33414;BME280;60055;41.884;12.534;2024-03-23T05:54:50;101126.06;;;14.11;74.70
33414;BME280;60055;41.884;12.534;2024-03-23T05:57:15;101129.78;;;14.07;75.25
33414;BME280;60055;41.884;12.534;2024-03-23T05:59:41;101120.56;;;13.95;75.73
33414;BME280;60055;41.884;12.534;2024-03-23T06:02:06;101122.28;;;13.96;75.32
33414;BME280;60055;41.884;12.534;2024-03-23T06:04:32;101118.16;;;13.89;75.71
33414;BME280;60055;41.884;12.534;2024-03-23T06:06:57;101121.75;;;14.08;75.47
33414;BME280;60055;41.884;12.534;2024-03-23T06:09:23;101121.19;;;14.20;74.72
33414;BME280;60055;41.884;12.534;2024-03-23T06:11:48;101127.34;;;14.02;75.26
33414;BME280;60055;41.884;12.534;2024-03-23T06:14:14;101123.59;;;14.06;75.58
33414;BME280;60055;41.884;12.534;2024-03-23T06:16:39;101132.38;;;14.08;75.07
33414;BME280;60055;41.884;12.534;2024-03-23T06:19:04;101131.97;;;14.17;74.80
33414;BME280;60055;41.884;12.534;2024-03-23T06:21:32;101126.91;;;14.31;74.53
33414;BME280;60055;41.884;12.534;2024-03-23T06:23:57;101133.91;;;14.34;74.47
33414;BME280;60055;41.884;12.534;2024-03-23T06:26:23;101134.63;;;14.38;74.17
33414;BME280;60055;41.884;12.534;2024-03-23T06:28:48;101134.72;;;14.36;74.20
33414;BME280;60055;41.884;12.534;2024-03-23T06:31:14;101144.19;;;14.42;73.64
33414;BME280;60055;41.884;12.534;2024-03-23T06:33:39;101142.84;;;14.52;73.38
33414;BME280;60055;41.884;12.534;2024-03-23T06:36:09;101141.03;;;14.52;73.37
33414;BME280;60055;41.884;12.534;2024-03-23T06:38:34;101142.75;;;14.53;73.03
33414;BME280;60055;41.884;12.534;2024-03-23T06:41:02;101144.78;;;14.48;73.36
33414;BME280;60055;41.884;12.534;2024-03-23T06:43:28;101147.56;;;14.64;73.06
33414;BME280;60055;41.884;12.534;2024-03-23T06:45:54;101146.06;;;14.58;73.38
33414;BME280;60055;41.884;12.534;2024-03-23T06:48:20;101147.72;;;14.61;72.82
33414;BME280;60055;41.884;12.534;2024-03-23T06:50:46;101150.66;;;14.55;73.52
33414;BME280;60055;41.884;12.534;2024-03-23T06:53:12;101156.75;;;14.57;73.23
33414;BME280;60055;41.884;12.534;2024-03-23T06:55:37;101155.28;;;14.70;73.29
33414;BME280;60055;41.884;12.534;2024-03-23T06:58:02;101165.78;;;14.73;73.05
33414;BME280;60055;41.884;12.534;2024-03-23T07:00:29;101162.88;;;14.77;72.59
33414;BME280;60055;41.884;12.534;2024-03-23T07:02:54;101158.66;;;14.92;72.41
33414;BME280;60055;41.884;12.534;2024-03-23T07:05:20;101155.00;;;14.95;72.01
33414;BME280;60055;41.884;12.534;2024-03-23T07:07:45;101152.97;;;15.18;71.68
33414;BME280;60055;41.884;12.534;2024-03-23T07:10:10;101151.69;;;15.08;71.23
33414;BME280;60055;41.884;12.534;2024-03-23T07:12:36;101148.34;;;15.22;70.82
33414;BME280;60055;41.884;12.534;2024-03-23T07:15:01;101156.38;;;15.39;70.48
33414;BME280;60055;41.884;12.534;2024-03-23T07:17:26;101151.63;;;15.46;70.09
33414;BME280;60055;41.884;12.534;2024-03-23T07:19:52;101154.44;;;15.61;69.75
33414;BME280;60055;41.884;12.534;2024-03-23T07:22:17;101145.66;;;15.76;68.87
33414;BME280;60055;41.884;12.534;2024-03-23T07:24:43;101145.19;;;15.85;68.73
33414;BME280;60055;41.884;12.534;2024-03-23T07:27:09;101140.22;;;16.12;68.14
33414;BME280;60055;41.884;12.534;2024-03-23T07:29:37;101140.97;;;16.49;66.78
33414;BME280;60055;41.884;12.534;2024-03-23T07:32:03;101141.66;;;16.52;65.97
33414;BME280;60055;41.884;12.534;2024-03-23T07:34:28;101136.81;;;16.43;66.15
33414;BME280;60055;41.884;12.534;2024-03-23T07:36:53;101140.22;;;16.29;66.29
33414;BME280;60055;41.884;12.534;2024-03-23T07:39:19;101150.66;;;16.17;66.91
33414;BME280;60055;41.884;12.534;2024-03-23T07:41:45;101158.25;;;16.24;67.88
33414;BME280;60055;41.884;12.534;2024-03-23T07:44:10;101149.19;;;16.44;66.64
33414;BME280;60055;41.884;12.534;2024-03-23T07:46:36;101155.72;;;16.56;66.29
33414;BME280;60055;41.884;12.534;2024-03-23T07:49:01;101152.47;;;16.66;66.06
33414;BME280;60055;41.884;12.534;2024-03-23T07:51:26;101154.56;;;17.08;65.79
33414;BME280;60055;41.884;12.534;2024-03-23T07:53:52;101157.94;;;16.96;65.22
33414;BME280;60055;41.884;12.534;2024-03-23T07:56:18;101161.03;;;17.04;65.46
33414;BME280;60055;41.884;12.534;2024-03-23T07:58:45;101161.75;;;17.23;65.16
33414;BME280;60055;41.884;12.534;2024-03-23T08:01:12;101162.03;;;17.49;64.20
33414;BME280;60055;41.884;12.534;2024-03-23T08:03:39;101159.19;;;17.52;64.21
33414;BME280;60055;41.884;12.534;2024-03-23T08:06:13;101158.94;;;17.41;64.47
33414;BME280;60055;41.884;12.534;2024-03-23T08:08:40;101159.28;;;17.66;63.81
33414;BME280;60055;41.884;12.534;2024-03-23T08:11:05;101144.06;;;18.26;63.49
33414;BME280;60055;41.884;12.534;2024-03-23T08:13:31;101152.16;;;18.68;62.33
33414;BME280;60055;41.884;12.534;2024-03-23T08:15:57;101163.38;;;19.16;62.23
33414;BME280;60055;41.884;12.534;2024-03-23T08:18:23;101155.94;;;19.33;61.35
33414;BME280;60055;41.884;12.534;2024-03-23T08:23:26;101156.38;;;19.13;61.73
33414;BME280;60055;41.884;12.534;2024-03-23T08:25:57;101168.22;;;18.68;62.77
33414;BME280;60055;41.884;12.534;2024-03-23T08:28:22;101165.75;;;18.35;64.96
33414;BME280;60055;41.884;12.534;2024-03-23T08:30:48;101160.88;;;18.42;64.88
33414;BME280;60055;41.884;12.534;2024-03-23T08:33:14;101159.69;;;18.04;65.99
33414;BME280;60055;41.884;12.534;2024-03-23T08:35:41;101154.44;;;18.88;63.62
33414;BME280;60055;41.884;12.534;2024-03-23T08:38:06;101152.78;;;19.00;62.45
33414;BME280;60055;41.884;12.534;2024-03-23T08:40:31;101151.25;;;18.96;63.27
33414;BME280;60055;41.884;12.534;2024-03-23T08:42:57;101142.66;;;19.32;62.09
33414;BME280;60055;41.884;12.534;2024-03-23T08:45:22;101142.56;;;19.60;60.99
33414;BME280;60055;41.884;12.534;2024-03-23T08:47:47;101139.47;;;20.06;59.42
33414;BME280;60055;41.884;12.534;2024-03-23T08:50:13;101134.41;;;20.01;57.79
33414;BME280;60055;41.884;12.534;2024-03-23T08:52:38;101137.22;;;20.12;57.81
33414;BME280;60055;41.884;12.534;2024-03-23T08:55:04;101123.00;;;20.37;56.85
33414;BME280;60055;41.884;12.534;2024-03-23T08:57:29;101119.69;;;19.81;58.22
33414;BME280;60055;41.884;12.534;2024-03-23T08:59:55;101128.44;;;19.58;59.15
33414;BME280;60055;41.884;12.534;2024-03-23T09:02:20;101119.69;;;19.15;59.90
33414;BME280;60055;41.884;12.534;2024-03-23T09:04:45;101124.25;;;19.40;59.85
33414;BME280;60055;41.884;12.534;2024-03-23T09:07:11;101125.56;;;19.74;58.48
33414;BME280;60055;41.884;12.534;2024-03-23T09:09:39;101120.78;;;20.04;57.43
33414;BME280;60055;41.884;12.534;2024-03-23T09:12:05;101126.78;;;19.82;57.77
33414;BME280;60055;41.884;12.534;2024-03-23T09:14:31;101122.63;;;19.11;59.60
33414;BME280;60055;41.884;12.534;2024-03-23T09:16:57;101120.03;;;19.89;58.25
33414;BME280;60055;41.884;12.534;2024-03-23T09:19:22;101129.75;;;19.65;59.20
33414;BME280;60055;41.884;12.534;2024-03-23T09:21:49;101118.16;;;19.65;59.65
33414;BME280;60055;41.884;12.534;2024-03-23T09:24:14;101106.22;;;19.96;58.90
33414;BME280;60055;41.884;12.534;2024-03-23T09:26:40;101109.06;;;19.67;58.69
33414;BME280;60055;41.884;12.534;2024-03-23T09:29:05;101109.09;;;19.80;59.32
33414;BME280;60055;41.884;12.534;2024-03-23T09:31:30;101103.75;;;19.80;58.87
33414;BME280;60055;41.884;12.534;2024-03-23T09:33:58;101101.81;;;19.82;57.95
33414;BME280;60055;41.884;12.534;2024-03-23T09:36:23;101093.38;;;20.13;57.02
33414;BME280;60055;41.884;12.534;2024-03-23T09:38:48;101084.66;;;20.22;56.68
33414;BME280;60055;41.884;12.534;2024-03-23T09:41:14;101085.41;;;20.12;57.37
33414;BME280;60055;41.884;12.534;2024-03-23T09:43:40;101086.00;;;20.29;56.46
33414;BME280;60055;41.884;12.534;2024-03-23T09:46:05;101078.13;;;20.26;55.19
33414;BME280;60055;41.884;12.534;2024-03-23T09:48:32;101081.19;;;20.34;55.02
33414;BME280;60055;41.884;12.534;2024-03-23T09:50:58;101072.47;;;20.44;54.87
33414;BME280;60055;41.884;12.534;2024-03-23T09:53:24;101069.34;;;20.50;55.06
33414;BME280;60055;41.884;12.534;2024-03-23T09:55:49;101071.56;;;20.56;54.17
33414;BME280;60055;41.884;12.534;2024-03-23T09:58:18;101064.38;;;20.56;54.53
33414;BME280;60055;41.884;12.534;2024-03-23T10:00:44;101049.81;;;20.84;53.58
33414;BME280;60055;41.884;12.534;2024-03-23T10:03:10;101044.19;;;20.63;51.85
33414;BME280;60055;41.884;12.534;2024-03-23T10:05:37;101040.47;;;20.53;52.85
33414;BME280;60055;41.884;12.534;2024-03-23T10:10:43;101040.81;;;20.23;53.19
33414;BME280;60055;41.884;12.534;2024-03-23T10:13:08;101038.88;;;20.51;51.93
33414;BME280;60055;41.884;12.534;2024-03-23T10:15:35;101032.13;;;20.69;52.50
33414;BME280;60055;41.884;12.534;2024-03-23T10:18:19;101036.00;;;20.77;51.99
33414;BME280;60055;41.884;12.534;2024-03-23T10:21:08;101037.25;;;20.84;51.76
33414;BME280;60055;41.884;12.534;2024-03-23T10:23:37;101030.34;;;20.93;52.02
33414;BME280;60055;41.884;12.534;2024-03-23T10:26:17;101028.34;;;20.84;51.86
33414;BME280;60055;41.884;12.534;2024-03-23T10:28:56;101015.38;;;20.78;50.98
33414;BME280;60055;41.884;12.534;2024-03-23T10:31:27;101012.47;;;20.81;51.79
33414;BME280;60055;41.884;12.534;2024-03-23T10:33:52;101012.00;;;20.63;52.52
33414;BME280;60055;41.884;12.534;2024-03-23T10:36:22;101007.72;;;20.84;51.88
33414;BME280;60055;41.884;12.534;2024-03-23T10:38:50;100994.22;;;20.50;52.08
33414;BME280;60055;41.884;12.534;2024-03-23T10:41:16;101005.25;;;20.45;53.06
33414;BME280;60055;41.884;12.534;2024-03-23T10:43:42;100997.22;;;20.58;51.99
33414;BME280;60055;41.884;12.534;2024-03-23T10:46:08;100997.91;;;20.23;52.87
33414;BME280;60055;41.884;12.534;2024-03-23T10:48:34;100994.81;;;20.29;52.63
33414;BME280;60055;41.884;12.534;2024-03-23T10:50:59;100991.66;;;20.23;53.39
33414;BME280;60055;41.884;12.534;2024-03-23T10:53:27;100984.22;;;20.52;51.78
33414;BME280;60055;41.884;12.534;2024-03-23T10:55:54;100997.63;;;20.52;51.81
33414;BME280;60055;41.884;12.534;2024-03-23T10:58:27;100993.13;;;20.52;51.54
33414;BME280;60055;41.884;12.534;2024-03-23T11:00:54;100994.44;;;20.21;51.85
33414;BME280;60055;41.884;12.534;2024-03-23T11:03:36;100984.81;;;20.31;51.19
33414;BME280;60055;41.884;12.534;2024-03-23T11:06:03;100991.66;;;20.35;50.69
33414;BME280;60055;41.884;12.534;2024-03-23T11:08:39;100987.25;;;20.47;50.48
33414;BME280;60055;41.884;12.534;2024-03-23T11:11:21;100981.09;;;20.58;50.01
33414;BME280;60055;41.884;12.534;2024-03-23T11:13:53;100991.84;;;20.58;48.63
33414;BME280;60055;41.884;12.534;2024-03-23T11:16:26;100992.56;;;20.60;48.14
33414;BME280;60055;41.884;12.534;2024-03-23T11:19:34;100986.44;;;20.34;49.11
33414;BME280;60055;41.884;12.534;2024-03-23T11:22:01;100986.84;;;20.41;47.88
33414;BME280;60055;41.884;12.534;2024-03-23T11:24:26;100980.06;;;20.48;47.70
33414;BME280;60055;41.884;12.534;2024-03-23T11:26:51;100978.19;;;20.61;47.02
33414;BME280;60055;41.884;12.534;2024-03-23T11:29:17;100983.41;;;20.75;46.34
33414;BME280;60055;41.884;12.534;2024-03-23T11:31:49;100973.78;;;20.60;46.45
33414;BME280;60055;41.884;12.534;2024-03-23T11:34:15;100974.13;;;20.55;46.14
33414;BME280;60055;41.884;12.534;2024-03-23T11:36:42;100971.56;;;20.54;46.27
33414;BME280;60055;41.884;12.534;2024-03-23T11:41:53;100958.78;;;20.57;45.83
33414;BME280;60055;41.884;12.534;2024-03-23T11:44:20;100961.56;;;20.56;45.98
33414;BME280;60055;41.884;12.534;2024-03-23T11:46:46;100963.34;;;20.68;45.88
33414;BME280;60055;41.884;12.534;2024-03-23T11:49:32;100957.47;;;20.86;45.89
33414;BME280;60055;41.884;12.534;2024-03-23T11:51:58;100949.00;;;20.80;46.46
33414;BME280;60055;41.884;12.534;2024-03-23T11:54:24;100951.94;;;20.77;46.72
33414;BME280;60055;41.884;12.534;2024-03-23T11:56:57;100945.53;;;20.90;46.70
33414;BME280;60055;41.884;12.534;2024-03-23T11:59:38;100937.13;;;20.95;47.01
33414;BME280;60055;41.884;12.534;2024-03-23T12:02:12;100943.97;;;20.75;47.08
33414;BME280;60055;41.884;12.534;2024-03-23T12:04:40;100939.44;;;20.65;46.41
33414;BME280;60055;41.884;12.534;2024-03-23T12:07:09;100939.56;;;20.27;46.57
33414;BME280;60055;41.884;12.534;2024-03-23T12:09:35;100937.19;;;20.22;46.58
33414;BME280;60055;41.884;12.534;2024-03-23T12:12:18;100937.16;;;20.48;46.77
33414;BME280;60055;41.884;12.534;2024-03-23T12:14:44;100946.66;;;20.52;46.39
33414;BME280;60055;41.884;12.534;2024-03-23T12:17:11;100953.25;;;20.48;47.32
33414;BME280;60055;41.884;12.534;2024-03-23T12:19:37;100953.06;;;20.62;47.26
33414;BME280;60055;41.884;12.534;2024-03-23T12:22:06;100968.19;;;20.63;48.21
33414;BME280;60055;41.884;12.534;2024-03-23T12:24:32;100972.28;;;20.56;48.03
33414;BME280;60055;41.884;12.534;2024-03-23T12:27:02;100976.13;;;20.28;49.66
33414;BME280;60055;41.884;12.534;2024-03-23T12:29:29;100979.69;;;20.03;50.58
33414;BME280;60055;41.884;12.534;2024-03-23T12:31:54;100972.28;;;19.94;51.26
33414;BME280;60055;41.884;12.534;2024-03-23T12:34:21;100971.34;;;19.82;52.07
33414;BME280;60055;41.884;12.534;2024-03-23T12:36:46;100962.75;;;20.03;51.85
33414;BME280;60055;41.884;12.534;2024-03-23T12:39:11;100968.31;;;20.12;51.74
33414;BME280;60055;41.884;12.534;2024-03-23T12:41:37;100955.69;;;20.51;50.71
33414;BME280;60055;41.884;12.534;2024-03-23T12:44:02;100943.13;;;20.27;51.41
33414;BME280;60055;41.884;12.534;2024-03-23T12:46:27;100937.16;;;20.48;50.92
33414;BME280;60055;41.884;12.534;2024-03-23T12:48:53;100940.84;;;20.34;51.82
33414;BME280;60055;41.884;12.534;2024-03-23T12:51:18;100953.53;;;20.07;52.96
33414;BME280;60055;41.884;12.534;2024-03-23T12:53:43;100950.03;;;20.43;52.06
33414;BME280;60055;41.884;12.534;2024-03-23T12:56:12;100942.44;;;20.11;52.42
33414;BME280;60055;41.884;12.534;2024-03-23T12:58:37;100960.47;;;20.09;52.47
33414;BME280;60055;41.884;12.534;2024-03-23T13:01:03;100951.75;;;19.57;53.61
33414;BME280;60055;41.884;12.534;2024-03-23T13:03:28;100956.97;;;19.96;53.54
33414;BME280;60055;41.884;12.534;2024-03-23T13:05:54;100964.88;;;19.98;53.17
33414;BME280;60055;41.884;12.534;2024-03-23T13:08:19;100951.28;;;20.50;51.81
33414;BME280;60055;41.884;12.534;2024-03-23T13:10:44;100951.06;;;20.76;51.46
33414;BME280;60055;41.884;12.534;2024-03-23T13:13:10;100944.44;;;20.93;50.70
33414;BME280;60055;41.884;12.534;2024-03-23T13:15:35;100946.53;;;21.01;50.01
33414;BME280;60055;41.884;12.534;2024-03-23T13:18:00;100945.91;;;20.97;49.89
33414;BME280;60055;41.884;12.534;2024-03-23T13:20:26;100951.28;;;20.97;49.53
33414;BME280;60055;41.884;12.534;2024-03-23T13:22:51;100944.81;;;21.12;49.08
33414;BME280;60055;41.884;12.534;2024-03-23T13:25:17;100947.63;;;20.98;49.53
33414;BME280;60055;41.884;12.534;2024-03-23T13:27:44;100953.81;;;20.64;50.32
33414;BME280;60055;41.884;12.534;2024-03-23T13:30:09;100948.38;;;20.04;51.52
33414;BME280;60055;41.884;12.534;2024-03-23T13:32:35;100948.75;;;20.35;51.65
33414;BME280;60055;41.884;12.534;2024-03-23T13:35:00;100949.66;;;20.11;52.49
33414;BME280;60055;41.884;12.534;2024-03-23T13:37:26;100940.25;;;20.42;50.87